Terminal Aerodrome Forecast
Issued by NWS Austin/San Antonio, TX

Home | Current Version | Previous Version | Text Only | Print | Product List | Glossary On
Versions: 1 2 3 4 5 6 7 8 9 10 11 12 13 14 15 16 17 18 19 20 21 22 23 24 25 26 27
000
FTUS44 KEWX 201700
TAFDRT
TAF
KDRT 201737Z 2018/2118 12010KT P6SM OVC012
     FM202100 13012KT P6SM SCT020 BKN035
     FM210400 11007KT P6SM BKN015
     FM210900 12005KT 3SM BR OVC005
     FM211500 14008KT P6SM OVC015
     FM211700 15012KT P6SM SCT025 BKN040=

USA.gov is the U.S. government's official web portal to all federal, state and local government web resources and services.